Time;durP1;ratioP1;P1;durP2;ratioP2;P2;SDS_P1;SDS_P2;PMS_P1;PMS_P2;Temp;Humidity;BMP_temperature;BMP_pressure;BME280_temperature;BME280_humidity;BME280_pressure;Samples;Min_cycle;Max_cycle;Signal;HPM_P1;HPM_P2
2023/06/13 00:03:13;;;;;;;3.30;3.00;;;34.50;46.60;;;;;;10508083;28;20047;-28
2023/06/13 00:08:17;;;;;;;3.90;2.60;;;34.50;46.50;;;;;;10510550;28;20044;-26
2023/06/13 00:13:21;;;;;;;4.05;2.97;;;34.50;46.70;;;;;;10487425;28;20052;-30
2023/06/13 00:18:23;;;;;;;3.53;3.20;;;34.40;46.50;;;;;;10500064;28;20060;-32
2023/06/13 00:23:26;;;;;;;3.25;2.95;;;34.30;46.50;;;;;;10492784;28;20433;-26
2023/06/13 00:28:29;;;;;;;5.97;3.20;;;34.20;46.40;;;;;;10492585;28;20135;-26
2023/06/13 00:33:31;;;;;;;2.88;2.55;;;34.20;46.40;;;;;;10494504;28;20052;-26
2023/06/13 00:38:34;;;;;;;3.58;3.22;;;34.10;46.40;;;;;;10507957;28;20059;-27
2023/06/13 00:43:37;;;;;;;3.10;2.80;;;34.10;46.40;;;;;;10500904;28;20044;-27
2023/06/13 00:48:42;;;;;;;2.97;2.67;;;34.10;46.40;;;;;;10495320;28;20106;-28
2023/06/13 00:53:47;;;;;;;9.68;3.17;;;34.00;46.40;;;;;;10494425;28;20488;-31
2023/06/13 00:58:54;;;;;;;3.60;2.97;;;33.90;46.20;;;;;;10494551;28;20098;-27
2023/06/13 01:03:59;;;;;;;3.17;2.63;;;33.90;46.20;;;;;;10494109;28;20045;-27
2023/06/13 01:09:04;;;;;;;4.03;2.42;;;33.80;46.80;;;;;;10501398;28;20036;-27
2023/06/13 01:14:14;;;;;;;4.28;2.85;;;33.80;46.20;;;;;;10488825;28;20049;-28
2023/06/13 01:19:31;;;;;;;4.88;3.25;;;33.70;46.30;;;;;;10490965;28;20045;-25
2023/06/13 01:24:42;;;;;;;3.58;2.60;;;33.60;46.10;;;;;;10492845;28;20089;-27
2023/06/13 01:29:46;;;;;;;3.08;2.75;;;33.60;46.00;;;;;;10502492;28;20044;-30
2023/06/13 01:34:49;;;;;;;3.88;2.63;;;33.60;46.20;;;;;;10496328;28;20454;-25
2023/06/13 01:39:51;;;;;;;3.25;2.47;;;33.50;46.00;;;;;;10500715;28;20048;-26
2023/06/13 01:44:54;;;;;;;4.65;2.53;;;33.50;46.10;;;;;;10507049;28;20082;-26
2023/06/13 01:50:16;;;;;;;2.80;2.45;;;33.40;45.90;;;;;;10494245;28;20135;-27
2023/06/13 01:55:31;;;;;;;3.17;2.67;;;33.40;46.00;;;;;;10484036;28;20075;-26
2023/06/13 02:00:35;;;;;;;3.55;2.40;;;33.30;45.90;;;;;;10496814;28;20048;-26
2023/06/13 02:05:37;;;;;;;3.22;2.50;;;33.20;45.90;;;;;;10495997;28;20127;-27
2023/06/13 02:10:39;;;;;;;3.33;2.47;;;33.20;45.80;;;;;;10495892;28;20052;-26
2023/06/13 02:15:42;;;;;;;2.70;2.30;;;33.20;45.80;;;;;;10495609;28;20143;-28
2023/06/13 02:20:44;;;;;;;5.53;2.65;;;33.10;45.70;;;;;;10497269;28;20189;-26
2023/06/13 02:25:46;;;;;;;2.42;2.22;;;33.00;46.20;;;;;;10488039;28;20390;-26
2023/06/13 02:30:49;;;;;;;2.92;2.53;;;33.10;45.70;;;;;;10503296;28;20075;-27
2023/06/13 02:35:51;;;;;;;2.78;2.35;;;33.00;45.60;;;;;;10496714;28;20058;-26
2023/06/13 02:40:54;;;;;;;2.70;2.50;;;32.90;45.50;;;;;;10489439;28;20102;-26
2023/06/13 02:45:58;;;;;;;4.00;2.78;;;32.90;45.50;;;;;;10498688;28;20051;-27
2023/06/13 02:51:00;;;;;;;3.17;2.45;;;32.80;45.50;;;;;;10493471;28;20045;-28
2023/06/13 02:56:02;;;;;;;6.00;2.47;;;32.80;45.40;;;;;;10499385;28;20048;-26
2023/06/13 03:15:28;;;;;;;3.88;2.80;;;32.70;44.70;;;;;;10474382;27;1992979;-27
2023/06/13 03:20:30;;;;;;;4.15;2.40;;;32.60;44.60;;;;;;10518625;28;20049;-30
2023/06/13 03:25:32;;;;;;;4.18;2.60;;;32.50;44.60;;;;;;10523774;28;20048;-27
2023/06/13 03:30:36;;;;;;;3.10;2.80;;;32.50;44.40;;;;;;10526955;28;20052;-28
2023/06/13 03:35:38;;;;;;;2.22;2.03;;;32.50;44.30;;;;;;10531721;28;20210;-34
2023/06/13 03:40:40;;;;;;;3.47;2.90;;;32.40;44.10;;;;;;10507234;28;20127;-29
2023/06/13 03:45:43;;;;;;;4.95;2.35;;;32.40;43.90;;;;;;10527192;28;20082;-34
2023/06/13 03:50:45;;;;;;;3.65;2.72;;;32.30;43.80;;;;;;10528789;28;20060;-35
2023/06/13 03:55:47;;;;;;;6.10;2.75;;;32.30;43.80;;;;;;10504420;28;20107;-28
2023/06/13 04:00:50;;;;;;;4.53;2.97;;;32.30;43.60;;;;;;10510766;28;20048;-30
2023/06/13 04:05:52;;;;;;;2.55;2.35;;;32.20;43.60;;;;;;10523608;28;20086;-33
2023/06/13 04:10:54;;;;;;;4.18;2.70;;;32.10;43.50;;;;;;10519481;28;20488;-29
2023/06/13 04:15:57;;;;;;;2.63;2.42;;;32.10;43.50;;;;;;10526421;28;20434;-29
2023/06/13 04:20:59;;;;;;;3.63;2.53;;;32.10;43.40;;;;;;10514932;28;20059;-33
2023/06/13 04:26:02;;;;;;;4.32;2.65;;;32.10;43.40;;;;;;10512379;28;20051;-27
2023/06/13 04:31:06;;;;;;;5.13;2.55;;;32.00;43.20;;;;;;10486410;28;20051;-29
2023/06/13 04:36:08;;;;;;;3.92;2.90;;;32.00;43.20;;;;;;10487693;28;20052;-28
2023/06/13 04:41:10;;;;;;;4.55;2.80;;;32.00;43.20;;;;;;10496303;28;20041;-29
2023/06/13 04:46:18;;;;;;;6.15;3.00;;;31.90;43.10;;;;;;10485338;28;20478;-28
2023/06/13 04:51:21;;;;;;;3.58;3.05;;;31.90;43.10;;;;;;10482905;28;20102;-30
2023/06/13 04:56:23;;;;;;;5.20;2.45;;;31.90;43.10;;;;;;10487256;28;20044;-27
2023/06/13 05:01:27;;;;;;;4.38;2.63;;;31.90;43.10;;;;;;10483107;28;20211;-29
2023/06/13 05:06:29;;;;;;;6.15;2.80;;;31.80;43.00;;;;;;10485564;28;20060;-29
2023/06/13 05:11:31;;;;;;;3.10;2.50;;;31.80;43.00;;;;;;10494124;28;20132;-29
2023/06/13 05:16:35;;;;;;;4.93;2.75;;;31.80;42.90;;;;;;10490171;28;20127;-29
2023/06/13 05:21:38;;;;;;;3.65;2.60;;;31.80;43.00;;;;;;10503182;28;20043;-29
2023/06/13 05:26:39;;;;;;;3.88;3.10;;;31.80;42.80;;;;;;10486805;28;20556;-32
2023/06/13 05:31:42;;;;;;;9.20;2.90;;;31.80;42.90;;;;;;10475975;28;20063;-30
2023/06/13 05:36:45;;;;;;;3.90;2.40;;;31.80;42.80;;;;;;10470072;28;20085;-33
2023/06/13 05:41:47;;;;;;;4.50;2.80;;;31.80;42.80;;;;;;10461164;28;20051;-31
2023/06/13 05:46:50;;;;;;;4.20;2.50;;;31.70;42.90;;;;;;10476441;28;20131;-30
2023/06/13 05:51:52;;;;;;;6.00;2.92;;;31.80;42.90;;;;;;10479676;28;20135;-31
2023/06/13 05:56:54;;;;;;;4.20;2.67;;;31.70;42.80;;;;;;10478112;28;20045;-29
2023/06/13 06:01:57;;;;;;;4.80;2.85;;;31.70;42.80;;;;;;10480353;28;20602;-39
2023/06/13 06:06:59;;;;;;;5.95;2.72;;;31.80;42.70;;;;;;10479871;28;20125;-30
2023/06/13 06:12:01;;;;;;;3.80;2.72;;;31.70;42.70;;;;;;10484091;28;20098;-30
2023/06/13 06:17:05;;;;;;;3.35;2.38;;;31.70;42.70;;;;;;10476326;28;20041;-29
2023/06/13 06:22:07;;;;;;;4.82;3.40;;;31.70;42.60;;;;;;10484248;28;20040;-30
2023/06/13 06:27:08;;;;;;;4.95;2.60;;;31.70;42.50;;;;;;10482643;28;20060;-30
2023/06/13 06:32:12;;;;;;;3.65;2.58;;;31.70;42.50;;;;;;10476185;28;20055;-31
2023/06/13 06:37:14;;;;;;;4.90;2.83;;;31.70;42.50;;;;;;10486490;28;20123;-29
2023/06/13 06:42:16;;;;;;;3.63;2.50;;;31.80;42.50;;;;;;10484267;28;20048;-29
2023/06/13 06:47:20;;;;;;;4.78;2.80;;;31.80;42.40;;;;;;10480568;28;20148;-30
2023/06/13 06:52:21;;;;;;;4.85;3.20;;;31.80;42.40;;;;;;10467726;28;20138;-29
2023/06/13 06:57:23;;;;;;;6.10;2.72;;;31.80;42.50;;;;;;10488339;28;20132;-30
2023/06/13 07:02:26;;;;;;;3.15;2.60;;;31.80;42.50;;;;;;10476983;28;20136;-29
2023/06/13 07:07:28;;;;;;;4.55;2.72;;;31.80;42.50;;;;;;10495233;28;20045;-33
2023/06/13 07:12:32;;;;;;;4.15;2.67;;;31.70;42.50;;;;;;10474445;28;20095;-30
2023/06/13 07:17:35;;;;;;;3.45;2.78;;;31.80;42.60;;;;;;10475801;28;20075;-29
2023/06/13 07:22:37;;;;;;;4.05;2.95;;;31.80;42.80;;;;;;10481664;28;20080;-28
2023/06/13 07:27:39;;;;;;;6.30;2.55;;;31.80;42.80;;;;;;10479653;28;20044;-31
2023/06/13 07:32:42;;;;;;;5.38;2.50;;;31.80;42.90;;;;;;10489855;28;20566;-29
2023/06/13 07:37:44;;;;;;;5.55;2.70;;;31.90;42.90;;;;;;10472868;28;20471;-30
2023/06/13 07:42:46;;;;;;;5.40;2.78;;;31.90;43.10;;;;;;10477485;28;20127;-29
2023/06/13 07:47:50;;;;;;;3.30;2.50;;;31.90;43.00;;;;;;10500054;28;20143;-28
2023/06/13 07:52:52;;;;;;;5.30;2.75;;;32.10;42.50;;;;;;10485906;28;20048;-29
2023/06/13 07:57:54;;;;;;;5.50;2.75;;;32.20;41.50;;;;;;10483820;28;20051;-29
2023/06/13 08:02:58;;;;;;;6.05;2.45;;;32.30;41.70;;;;;;10488635;28;20524;-29
2023/06/13 08:08:00;;;;;;;2.95;2.45;;;32.10;42.00;;;;;;10500787;28;20416;-29
2023/06/13 08:13:02;;;;;;;3.15;2.20;;;32.00;43.20;;;;;;10489484;28;20049;-29
2023/06/13 08:18:05;;;;;;;3.55;2.72;;;32.10;41.70;;;;;;10483349;28;20049;-35
2023/06/13 08:23:07;;;;;;;3.65;2.33;;;32.00;40.80;;;;;;10496245;28;20524;-30
2023/06/13 08:28:11;;;;;;;4.35;2.45;;;32.20;42.60;;;;;;10481925;28;20053;-29
2023/06/13 08:33:14;;;;;;;6.35;2.78;;;32.40;41.40;;;;;;10493869;28;20079;-29
2023/06/13 08:38:16;;;;;;;9.23;2.60;;;32.30;41.60;;;;;;10491943;28;20036;-30
2023/06/13 08:43:19;;;;;;;4.97;2.65;;;32.20;40.30;;;;;;10479100;28;20563;-29
2023/06/13 08:48:22;;;;;;;10.05;2.25;;;32.50;40.50;;;;;;10483444;28;20076;-29
2023/06/13 08:53:24;;;;;;;7.93;2.42;;;32.50;40.20;;;;;;10487930;28;20151;-35
2023/06/13 08:58:28;;;;;;;3.15;2.15;;;32.60;40.00;;;;;;10489391;28;20048;-29
2023/06/13 09:03:32;;;;;;;3.10;2.40;;;32.60;39.90;;;;;;10498466;28;20060;-29
2023/06/13 09:08:37;;;;;;;4.15;2.83;;;32.20;41.80;;;;;;10481418;28;20171;-30
2023/06/13 09:13:40;;;;;;;3.72;2.80;;;32.80;40.10;;;;;;10513639;28;20056;-31
2023/06/13 09:18:43;;;;;;;3.67;2.83;;;31.70;41.40;;;;;;10496869;28;20478;-29
2023/06/13 09:23:45;;;;;;;6.00;2.60;;;32.00;41.90;;;;;;10492269;28;20079;-31
2023/06/13 09:28:48;;;;;;;4.95;2.85;;;32.00;41.50;;;;;;10472561;28;20561;-30
2023/06/13 09:33:51;;;;;;;4.78;2.85;;;32.00;40.80;;;;;;10487758;28;20052;-28
2023/06/13 09:38:54;;;;;;;3.85;2.75;;;31.70;39.80;;;;;;10487434;28;20041;-30
2023/06/13 09:43:55;;;;;;;4.82;3.10;;;32.00;42.20;;;;;;10481581;28;20045;-30
2023/06/13 09:49:00;;;;;;;4.97;2.83;;;32.40;40.80;;;;;;10483135;28;20068;-29
2023/06/13 09:54:03;;;;;;;5.13;2.95;;;32.90;39.30;;;;;;10490095;28;20143;-29
2023/06/13 09:59:05;;;;;;;5.93;2.65;;;33.40;38.80;;;;;;10489861;28;20131;-29
2023/06/13 10:04:10;;;;;;;3.35;2.80;;;32.90;40.80;;;;;;10480545;28;20135;-29
2023/06/13 10:09:12;;;;;;;5.25;3.30;;;33.20;39.30;;;;;;10488870;28;20095;-31
2023/06/13 10:14:19;;;;;;;3.10;2.67;;;32.80;38.30;;;;;;10492317;28;20051;-29
2023/06/13 10:19:24;;;;;;;3.47;2.40;;;32.70;40.50;;;;;;10487350;28;20887;-30
2023/06/13 10:24:27;;;;;;;9.38;2.78;;;33.10;39.00;;;;;;10486302;28;20040;-29
2023/06/13 10:29:51;;;;;;;5.10;3.72;;;32.50;36.20;;;;;;10489938;28;20071;-30
2023/06/13 10:35:12;;;;;;;7.60;3.45;;;32.90;38.40;;;;;;10487588;28;20056;-34
2023/06/13 10:40:55;;;;;;;6.93;3.25;;;33.00;37.70;;;;;;10481651;28;20050;-29
2023/06/13 10:46:00;;;;;;;3.72;3.13;;;32.60;40.80;;;;;;10490858;28;20135;-29
2023/06/13 10:51:03;;;;;;;7.75;3.03;;;32.70;37.30;;;;;;10484476;28;20131;-29
2023/06/13 10:56:08;;;;;;;5.28;2.88;;;33.40;38.10;;;;;;10479561;28;20087;-29
2023/06/13 11:01:29;;;;;;;4.40;2.67;;;33.10;37.20;;;;;;10487769;28;20115;-30
2023/06/13 11:06:32;;;;;;;4.20;2.55;;;33.40;37.80;;;;;;10479003;28;20101;-29
2023/06/13 11:11:40;;;;;;;5.68;2.90;;;33.30;39.50;;;;;;10498086;28;20056;-31
2023/06/13 11:16:45;;;;;;;4.60;2.92;;;33.30;38.00;;;;;;10475982;28;20079;-29
2023/06/13 11:21:52;;;;;;;5.28;3.42;;;33.20;35.80;;;;;;10487251;28;20455;-29
2023/06/13 11:26:56;;;;;;;5.70;2.63;;;33.40;38.40;;;;;;10471783;28;20126;-32
2023/06/13 11:32:00;;;;;;;3.28;2.72;;;33.80;41.60;;;;;;10482023;28;20041;-29
2023/06/13 11:37:08;;;;;;;4.22;2.47;;;33.60;39.40;;;;;;10481785;28;20083;-28
2023/06/13 11:42:10;;;;;;;2.42;2.22;;;34.00;39.20;;;;;;10498984;28;20491;-30
2023/06/13 11:47:12;;;;;;;8.88;2.20;;;34.20;39.90;;;;;;10489050;28;20062;-28
2023/06/13 11:52:16;;;;;;;4.75;3.05;;;34.00;40.00;;;;;;10481786;28;20071;-29
2023/06/13 11:57:18;;;;;;;3.92;2.90;;;34.50;39.10;;;;;;10496638;28;20492;-27
2023/06/13 12:02:20;;;;;;;4.43;2.95;;;34.90;36.30;;;;;;10493611;28;20405;-29
2023/06/13 12:07:23;;;;;;;2.83;2.50;;;34.60;38.50;;;;;;10485671;28;20073;-30
2023/06/13 12:12:25;;;;;;;2.95;2.42;;;34.40;39.30;;;;;;10494132;28;20080;-29
2023/06/13 12:17:27;;;;;;;6.90;2.75;;;34.20;35.40;;;;;;10474508;28;20497;-29
2023/06/13 12:22:30;;;;;;;6.40;3.00;;;34.20;37.10;;;;;;10485431;28;20136;-28
2023/06/13 12:27:33;;;;;;;2.78;2.25;;;34.80;37.50;;;;;;10493397;28;20512;-29
2023/06/13 12:32:43;;;;;;;2.65;2.35;;;34.90;38.70;;;;;;10476138;28;20041;-29
2023/06/13 12:37:48;;;;;;;3.67;3.10;;;35.00;38.20;;;;;;10480687;28;20382;-32
2023/06/13 12:42:50;;;;;;;3.25;2.75;;;35.10;33.50;;;;;;10499853;28;20083;-36
2023/06/13 12:47:54;;;;;;;7.57;2.70;;;35.40;37.40;;;;;;10490353;28;20473;-30
2023/06/13 12:53:05;;;;;;;3.97;2.70;;;35.30;37.50;;;;;;10492556;28;20135;-30
2023/06/13 12:58:33;;;;;;;7.80;3.28;;;35.40;35.90;;;;;;10512365;28;20040;-31
2023/06/13 13:03:36;;;;;;;2.55;2.35;;;36.00;34.30;;;;;;10501293;28;20187;-36
2023/06/13 13:08:39;;;;;;;5.63;3.15;;;36.20;37.10;;;;;;10487830;28;20041;-34
2023/06/13 13:13:41;;;;;;;6.25;2.88;;;36.40;34.60;;;;;;10487198;28;20481;-30
2023/06/13 13:18:44;;;;;;;4.32;2.67;;;36.50;32.40;;;;;;10480581;28;20063;-31
2023/06/13 13:23:47;;;;;;;7.95;2.90;;;36.60;37.60;;;;;;10492159;28;20080;-28
2023/06/13 13:28:48;;;;;;;3.67;2.78;;;36.80;32.40;;;;;;10490632;28;20048;-30
2023/06/13 13:33:50;;;;;;;3.85;2.90;;;37.00;37.70;;;;;;10492445;28;20079;-29
2023/06/13 13:38:54;;;;;;;4.95;1.98;;;37.30;35.90;;;;;;10471937;28;20064;-28
2023/06/13 13:43:56;;;;;;;2.63;2.20;;;37.50;33.10;;;;;;10491532;28;20045;-28
2023/06/13 13:48:58;;;;;;;13.50;2.60;;;37.60;38.10;;;;;;10493187;28;20064;-30
2023/06/13 13:54:02;;;;;;;2.47;1.85;;;38.20;37.00;;;;;;10486479;28;20541;-29
2023/06/13 13:59:04;;;;;;;2.38;2.15;;;38.20;33.90;;;;;;10486727;28;20113;-31
2023/06/13 14:04:05;;;;;;;2.67;2.20;;;37.70;39.60;;;;;;10478977;28;20068;-29
2023/06/13 14:09:09;;;;;;;3.28;2.47;;;38.30;39.00;;;;;;10482130;28;20049;-30
2023/06/13 14:14:12;;;;;;;7.70;2.88;;;38.10;36.40;;;;;;10478389;28;20147;-31
2023/06/13 14:19:13;;;;;;;4.88;2.80;;;38.00;34.20;;;;;;10484024;28;20473;-31
2023/06/13 14:24:17;;;;;;;6.35;2.53;;;38.40;32.30;;;;;;10475038;28;20065;-29
2023/06/13 14:29:19;;;;;;;3.88;2.70;;;38.30;36.20;;;;;;10493537;28;20438;-29
2023/06/13 14:34:21;;;;;;;3.35;2.45;;;38.30;36.10;;;;;;10481232;28;20091;-27
2023/06/13 14:39:24;;;;;;;3.20;2.10;;;38.50;40.10;;;;;;10476721;28;20044;-28
2023/06/13 14:44:26;;;;;;;3.60;2.28;;;38.50;40.10;;;;;;10478592;28;20068;-29
2023/06/13 14:49:28;;;;;;;2.80;2.40;;;38.40;40.70;;;;;;10491719;28;20131;-30
2023/06/13 14:54:32;;;;;;;4.55;2.40;;;38.60;40.50;;;;;;10465782;28;20482;-30
2023/06/13 14:59:34;;;;;;;3.88;2.25;;;38.90;39.90;;;;;;10490948;28;20050;-31
2023/06/13 15:04:37;;;;;;;3.22;1.80;;;39.90;34.10;;;;;;10480627;28;20429;-28
2023/06/13 15:09:42;;;;;;;4.35;2.33;;;39.30;39.70;;;;;;10483544;28;20535;-33
2023/06/13 15:14:43;;;;;;;3.15;2.67;;;39.80;36.80;;;;;;10486742;28;20147;-28
2023/06/13 15:19:46;;;;;;;2.28;2.08;;;40.20;38.50;;;;;;10498746;28;20094;-33
2023/06/13 15:24:49;;;;;;;2.72;2.25;;;39.60;39.80;;;;;;10487701;28;20040;-28
2023/06/13 15:29:51;;;;;;;3.17;2.47;;;40.40;36.50;;;;;;10483153;28;20118;-29
2023/06/13 15:34:53;;;;;;;9.02;2.55;;;39.70;39.20;;;;;;10496746;28;20139;-27
2023/06/13 15:39:56;;;;;;;4.15;2.10;;;39.30;39.50;;;;;;10490466;28;20503;-30
2023/06/13 15:44:59;;;;;;;4.20;2.88;;;39.60;39.70;;;;;;10490573;28;20400;-33
2023/06/13 15:50:01;;;;;;;5.07;3.30;;;39.70;39.80;;;;;;10491065;28;20060;-29
2023/06/13 15:55:04;;;;;;;2.78;2.40;;;40.20;37.30;;;;;;10492345;28;20393;-27
2023/06/13 16:00:07;;;;;;;7.28;2.92;;;40.40;37.90;;;;;;10487733;28;20044;-28
2023/06/13 16:05:09;;;;;;;3.13;2.47;;;39.80;38.20;;;;;;10482428;28;20574;-33
2023/06/13 16:10:12;;;;;;;3.28;2.15;;;40.00;38.40;;;;;;10479635;28;20459;-30
2023/06/13 16:15:14;;;;;;;3.70;2.88;;;39.70;42.00;;;;;;10485052;28;20136;-32
2023/06/13 16:20:17;;;;;;;5.82;2.55;;;40.40;35.60;;;;;;10487386;28;20291;-29
2023/06/13 16:25:20;;;;;;;6.07;2.88;;;40.80;40.60;;;;;;10476114;28;20048;-29
2023/06/13 16:30:22;;;;;;;3.35;2.70;;;41.50;41.20;;;;;;10506740;28;20137;-31
2023/06/13 16:35:24;;;;;;;2.45;2.25;;;41.00;41.40;;;;;;10484839;28;20076;-33
2023/06/13 16:40:27;;;;;;;3.17;2.63;;;40.60;42.10;;;;;;10494941;28;20068;-34
2023/06/13 16:45:29;;;;;;;3.80;2.72;;;41.30;42.30;;;;;;10490394;28;20122;-27
2023/06/13 16:50:31;;;;;;;4.60;1.75;;;41.30;47.90;;;;;;10499698;28;20125;-28
2023/06/13 16:55:34;;;;;;;3.58;2.00;;;41.00;46.30;;;;;;10484028;28;20048;-27
2023/06/13 17:00:36;;;;;;;5.05;2.30;;;40.70;47.70;;;;;;10487066;28;20073;-30
2023/06/13 17:05:38;;;;;;;2.97;2.15;;;41.00;41.70;;;;;;10486638;28;20052;-29
2023/06/13 17:10:41;;;;;;;2.38;2.03;;;41.10;49.70;;;;;;10494955;28;20071;-27
2023/06/13 17:15:46;;;;;;;2.28;2.00;;;40.70;48.00;;;;;;10407874;28;20064;-27
2023/06/13 17:20:55;;;;;;;2.75;2.00;;;40.40;46.40;;;;;;10413481;28;20045;-30
2023/06/13 17:25:58;;;;;;;4.40;2.13;;;40.30;45.50;;;;;;10397217;28;20055;-27
2023/06/13 17:31:00;;;;;;;2.33;1.73;;;40.50;45.50;;;;;;10400999;28;20484;-28
2023/06/13 17:36:02;;;;;;;2.45;1.95;;;40.60;44.20;;;;;;10416045;28;20046;-28
2023/06/13 17:41:05;;;;;;;5.45;1.92;;;40.30;45.80;;;;;;10410538;28;20107;-28
2023/06/13 17:46:07;;;;;;;4.68;1.90;;;40.00;44.30;;;;;;10403300;28;20103;-32
2023/06/13 17:51:09;;;;;;;3.00;1.77;;;39.70;45.30;;;;;;10395510;28;20042;-31
2023/06/13 17:56:13;;;;;;;10.95;2.15;;;39.70;42.20;;;;;;10406681;28;20077;-29
2023/06/13 18:01:15;;;;;;;2.42;1.60;;;39.50;42.20;;;;;;10396329;28;20529;-28
2023/06/13 18:06:17;;;;;;;2.55;1.70;;;39.50;42.70;;;;;;10398121;28;20049;-29
2023/06/13 18:11:20;;;;;;;3.60;1.85;;;39.30;43.20;;;;;;10413750;28;20102;-28
2023/06/13 18:16:23;;;;;;;4.35;1.80;;;39.70;43.40;;;;;;10480245;28;20050;-29
2023/06/13 18:21:28;;;;;;;1.50;1.40;;;39.70;43.60;;;;;;10495536;28;20644;-28
2023/06/13 18:26:31;;;;;;;2.88;1.70;;;39.80;45.40;;;;;;10493750;28;20044;-28
2023/06/13 18:31:33;;;;;;;4.30;1.75;;;39.90;45.70;;;;;;10483588;28;20098;-28
2023/06/13 18:36:36;;;;;;;5.90;1.90;;;40.10;51.30;;;;;;10469833;28;20049;-29
2023/06/13 18:41:39;;;;;;;3.63;1.70;;;40.20;51.50;;;;;;10482775;28;20140;-30
2023/06/13 18:46:41;;;;;;;3.83;1.58;;;39.60;44.30;;;;;;10496550;28;20214;-31
2023/06/13 18:51:42;;;;;;;1.30;1.20;;;39.40;45.30;;;;;;10480753;28;21045;-30
2023/06/13 18:56:46;;;;;;;2.85;1.60;;;39.50;45.30;;;;;;10486941;28;20056;-31
2023/06/13 19:01:48;;;;;;;3.05;2.00;;;39.40;44.50;;;;;;10469244;28;20044;-31
2023/06/13 19:06:50;;;;;;;2.15;1.63;;;39.50;44.80;;;;;;10486433;28;20489;-30
2023/06/13 19:11:53;;;;;;;2.60;1.70;;;39.30;44.80;;;;;;10483218;28;20076;-30
2023/06/13 19:16:55;;;;;;;2.42;1.50;;;39.40;45.90;;;;;;10482497;28;20105;-31
2023/06/13 19:21:57;;;;;;;2.85;1.60;;;39.10;45.20;;;;;;10481519;28;20049;-29
2023/06/13 19:27:01;;;;;;;5.18;1.95;;;39.00;45.10;;;;;;10472996;28;20062;-29
2023/06/13 19:32:03;;;;;;;2.53;1.27;;;38.70;44.40;;;;;;10490776;28;20040;-28
2023/06/13 19:37:05;;;;;;;1.40;1.23;;;38.50;44.40;;;;;;10487323;28;20139;-30
2023/06/13 19:42:10;;;;;;;2.67;1.45;;;38.30;43.90;;;;;;10478593;28;20048;-32
2023/06/13 19:47:12;;;;;;;1.73;1.63;;;38.20;43.70;;;;;;10478442;28;20102;-30
2023/06/13 19:52:14;;;;;;;1.35;1.25;;;38.10;44.10;;;;;;10483733;28;20553;-30
2023/06/13 19:57:17;;;;;;;2.30;1.42;;;38.10;44.20;;;;;;10478353;28;20143;-29
2023/06/13 20:02:20;;;;;;;6.05;1.70;;;37.90;44.00;;;;;;10485622;28;20118;-31
2023/06/13 20:07:22;;;;;;;4.05;1.40;;;37.70;43.60;;;;;;10496390;28;20048;-29
2023/06/13 20:12:26;;;;;;;2.88;1.63;;;37.50;43.40;;;;;;10488654;28;20094;-35
2023/06/13 20:17:31;;;;;;;1.77;1.58;;;37.40;43.40;;;;;;10496036;28;20053;-29
2023/06/13 20:22:33;;;;;;;3.15;1.50;;;37.30;43.70;;;;;;10496667;28;20044;-29
2023/06/13 20:27:37;;;;;;;3.00;1.40;;;37.20;43.40;;;;;;10478762;28;20399;-28
2023/06/13 20:32:39;;;;;;;2.80;1.60;;;37.00;44.00;;;;;;10498144;28;20549;-29
2023/06/13 20:37:41;;;;;;;1.70;1.50;;;36.90;44.20;;;;;;10499248;28;20051;-31
2023/06/13 20:42:45;;;;;;;3.70;1.77;;;36.80;43.40;;;;;;10500856;28;20068;-29
2023/06/13 20:47:48;;;;;;;3.50;1.77;;;36.70;43.30;;;;;;10490772;28;20053;-30
2023/06/13 20:52:50;;;;;;;1.90;1.40;;;36.60;43.60;;;;;;10493784;28;20128;-30
2023/06/13 20:57:53;;;;;;;4.55;1.35;;;36.50;43.80;;;;;;10500508;28;20388;-31
2023/06/13 21:02:56;;;;;;;1.92;1.60;;;36.50;43.30;;;;;;10492545;28;20480;-30
2023/06/13 21:07:58;;;;;;;2.78;1.88;;;36.30;43.40;;;;;;10501248;28;20396;-31
2023/06/13 21:13:01;;;;;;;1.58;1.35;;;36.20;43.00;;;;;;10492304;28;20059;-30
2023/06/13 21:18:04;;;;;;;3.78;1.40;;;36.20;43.20;;;;;;10481796;28;20407;-31
2023/06/13 21:23:06;;;;;;;2.20;1.33;;;36.10;43.80;;;;;;10486584;28;20068;-31
2023/06/13 21:28:10;;;;;;;2.58;1.48;;;36.00;43.20;;;;;;10494306;28;20130;-30
2023/06/13 21:33:12;;;;;;;2.22;1.48;;;35.80;43.40;;;;;;10478818;28;20040;-30
2023/06/13 21:38:15;;;;;;;1.67;1.30;;;35.80;43.30;;;;;;10489994;28;20068;-30
2023/06/13 21:43:18;;;;;;;3.72;1.52;;;35.70;43.40;;;;;;10490479;28;20048;-32
2023/06/13 21:48:20;;;;;;;2.40;1.48;;;35.60;43.00;;;;;;10472655;28;20052;-29
2023/06/13 21:53:22;;;;;;;2.33;1.40;;;35.60;43.30;;;;;;10495578;28;20119;-30
2023/06/13 21:58:25;;;;;;;1.85;1.40;;;35.50;43.00;;;;;;10491784;28;20052;-29
2023/06/13 22:03:27;;;;;;;1.80;1.30;;;35.40;43.20;;;;;;10485276;28;20095;-28
2023/06/13 22:08:31;;;;;;;2.17;1.30;;;35.30;43.40;;;;;;10487890;28;20135;-32
2023/06/13 22:13:37;;;;;;;1.52;1.25;;;35.20;43.50;;;;;;10495895;28;20053;-30
2023/06/13 22:18:44;;;;;;;2.63;1.50;;;35.10;43.00;;;;;;10482092;28;20045;-30
2023/06/13 22:23:45;;;;;;;3.63;2.03;;;35.10;43.20;;;;;;10482569;28;20052;-29
2023/06/13 22:28:49;;;;;;;2.15;1.48;;;35.00;43.10;;;;;;10490847;28;20107;-28
2023/06/13 22:33:50;;;;;;;3.60;1.58;;;34.90;43.00;;;;;;10494737;28;20097;-29
2023/06/13 22:38:52;;;;;;;1.58;1.40;;;34.90;43.00;;;;;;10486521;28;20179;-33
2023/06/13 22:43:55;;;;;;;2.33;1.60;;;34.80;43.10;;;;;;10476183;28;20492;-31
2023/06/13 22:48:59;;;;;;;1.83;1.48;;;34.70;43.10;;;;;;10478557;28;20064;-29
2023/06/13 22:54:01;;;;;;;2.25;1.40;;;34.60;43.10;;;;;;10482008;28;20405;-30
2023/06/13 22:59:04;;;;;;;1.75;1.40;;;34.60;42.80;;;;;;10474653;28;20059;-29
2023/06/13 23:04:06;;;;;;;2.63;1.48;;;34.50;43.20;;;;;;10487070;28;20041;-29
2023/06/13 23:09:08;;;;;;;1.88;1.20;;;34.50;42.90;;;;;;10486921;28;20045;-31
2023/06/13 23:14:11;;;;;;;3.15;1.40;;;34.40;43.00;;;;;;10483262;28;20049;-31
2023/06/13 23:19:14;;;;;;;2.65;1.50;;;34.30;43.00;;;;;;10481431;28;20559;-30
2023/06/13 23:24:16;;;;;;;5.00;1.40;;;34.20;43.00;;;;;;10484143;28;20168;-32
2023/06/13 23:29:20;;;;;;;2.53;1.48;;;34.20;42.90;;;;;;10482584;28;20040;-32
2023/06/13 23:34:22;;;;;;;2.97;1.40;;;34.10;42.90;;;;;;10490207;28;20059;-29
2023/06/13 23:39:23;;;;;;;1.60;1.20;;;34.10;42.70;;;;;;10501258;28;20044;-29
2023/06/13 23:44:27;;;;;;;2.00;1.60;;;34.00;42.90;;;;;;10492362;28;20195;-29
2023/06/13 23:49:29;;;;;;;1.70;1.48;;;33.90;42.90;;;;;;10490095;28;20467;-33
2023/06/13 23:54:30;;;;;;;1.75;1.30;;;33.90;42.90;;;;;;10497529;28;20074;-30
2023/06/13 23:59:34;;;;;;;4.88;1.55;;;33.80;42.80;;;;;;10508411;28;20044;-30
